Port Credit, Canada
Current Conditions -  °F | °C
As of 3:00 PM on Monday 22 Dec 2014 (Local Time) from CYYZ Reporting Station
Broken Clouds Broken Clouds  
Wind Chill: 29°   Ceiling: 8000
Heat Index: 36°   Visibility: 15mi
Dew Point: 27°   Wind: 9mph
Humidity: 70%   Direction: 70°ENE
Pressure: 30.09"   Gusts: NA
Location:  43.55°N, 79.58°W
Report Text: CYYZ 222000Z 07008KT 15SM SCT019 BKN080 02/M03 A3009 RMK SC4AC1 SLP195
Loading
Personal Weather Stations






























Interactive Weather Map New forecast layout! Learn more

10-Day Weather Forecast

Advertisements
Track Severe Weather on mobile